sensor_id;sensor_type;location;lat;lon;timestamp;temperature;humidity
2999;DHT22;1509;51.964;7.628;2022-07-29T00:02:10;19.70;99.90
2999;DHT22;1509;51.964;7.628;2022-07-29T00:04:36;19.70;99.90
2999;DHT22;1509;51.964;7.628;2022-07-29T00:07:03;19.70;99.90
2999;DHT22;1509;51.964;7.628;2022-07-29T00:09:29;19.70;99.90
2999;DHT22;1509;51.964;7.628;2022-07-29T00:11:57;19.60;99.90
2999;DHT22;1509;51.964;7.628;2022-07-29T00:14:24;19.60;99.90
2999;DHT22;1509;51.964;7.628;2022-07-29T00:16:49;19.60;99.90
2999;DHT22;1509;51.964;7.628;2022-07-29T00:19:15;19.60;99.90
2999;DHT22;1509;51.964;7.628;2022-07-29T00:21:41;19.60;99.90
2999;DHT22;1509;51.964;7.628;2022-07-29T00:24:07;19.60;99.90
2999;DHT22;1509;51.964;7.628;2022-07-29T00:26:32;19.50;99.90
2999;DHT22;1509;51.964;7.628;2022-07-29T00:28:59;19.50;99.90
2999;DHT22;1509;51.964;7.628;2022-07-29T00:31:25;19.50;99.90
2999;DHT22;1509;51.964;7.628;2022-07-29T00:33:51;19.50;99.90
2999;DHT22;1509;51.964;7.628;2022-07-29T00:36:17;19.40;99.90
2999;DHT22;1509;51.964;7.628;2022-07-29T00:38:42;19.40;99.90
2999;DHT22;1509;51.964;7.628;2022-07-29T00:41:11;19.40;99.90
2999;DHT22;1509;51.964;7.628;2022-07-29T00:43:37;19.30;99.90
2999;DHT22;1509;51.964;7.628;2022-07-29T00:46:02;19.30;99.90
2999;DHT22;1509;51.964;7.628;2022-07-29T00:48:28;19.30;99.90
2999;DHT22;1509;51.964;7.628;2022-07-29T00:50:55;19.20;99.90
2999;DHT22;1509;51.964;7.628;2022-07-29T00:53:23;19.20;99.90
2999;DHT22;1509;51.964;7.628;2022-07-29T00:55:50;19.10;99.90
2999;DHT22;1509;51.964;7.628;2022-07-29T00:58:15;19.10;99.90
2999;DHT22;1509;51.964;7.628;2022-07-29T01:00:41;19.10;99.90
2999;DHT22;1509;51.964;7.628;2022-07-29T01:03:07;19.10;99.90
2999;DHT22;1509;51.964;7.628;2022-07-29T01:05:34;19.00;99.90
2999;DHT22;1509;51.964;7.628;2022-07-29T01:08:00;19.00;99.90
2999;DHT22;1509;51.964;7.628;2022-07-29T01:10:27;18.90;99.90
2999;DHT22;1509;51.964;7.628;2022-07-29T01:12:57;18.90;99.90
2999;DHT22;1509;51.964;7.628;2022-07-29T01:15:24;18.90;99.90
2999;DHT22;1509;51.964;7.628;2022-07-29T01:18:00;18.90;99.90
2999;DHT22;1509;51.964;7.628;2022-07-29T01:29:32;18.80;99.90
2999;DHT22;1509;51.964;7.628;2022-07-29T01:37:15;18.70;99.90
2999;DHT22;1509;51.964;7.628;2022-07-29T01:39:46;18.70;99.90
2999;DHT22;1509;51.964;7.628;2022-07-29T01:42:20;18.70;99.90
2999;DHT22;1509;51.964;7.628;2022-07-29T01:45:14;18.80;99.90
2999;DHT22;1509;51.964;7.628;2022-07-29T01:47:47;18.70;99.90
2999;DHT22;1509;51.964;7.628;2022-07-29T01:50:16;18.80;99.90
2999;DHT22;1509;51.964;7.628;2022-07-29T01:52:49;18.80;99.90
2999;DHT22;1509;51.964;7.628;2022-07-29T01:55:20;18.70;99.90
2999;DHT22;1509;51.964;7.628;2022-07-29T01:57:48;18.70;99.90
2999;DHT22;1509;51.964;7.628;2022-07-29T02:00:16;18.70;99.90
2999;DHT22;1509;51.964;7.628;2022-07-29T02:02:44;18.70;99.90
2999;DHT22;1509;51.964;7.628;2022-07-29T02:05:14;18.70;99.90
2999;DHT22;1509;51.964;7.628;2022-07-29T02:07:44;18.70;99.90
2999;DHT22;1509;51.964;7.628;2022-07-29T02:10:12;18.70;99.90
2999;DHT22;1509;51.964;7.628;2022-07-29T02:12:39;18.60;99.90
2999;DHT22;1509;51.964;7.628;2022-07-29T02:15:06;18.60;99.90
2999;DHT22;1509;51.964;7.628;2022-07-29T02:17:43;18.60;99.90
2999;DHT22;1509;51.964;7.628;2022-07-29T02:20:11;18.60;99.90
2999;DHT22;1509;51.964;7.628;2022-07-29T02:22:39;18.50;99.90
2999;DHT22;1509;51.964;7.628;2022-07-29T02:25:07;18.50;99.90
2999;DHT22;1509;51.964;7.628;2022-07-29T02:27:34;18.50;99.90
2999;DHT22;1509;51.964;7.628;2022-07-29T02:30:02;18.50;99.90
2999;DHT22;1509;51.964;7.628;2022-07-29T02:32:29;18.40;99.90
2999;DHT22;1509;51.964;7.628;2022-07-29T02:34:58;18.40;99.90
2999;DHT22;1509;51.964;7.628;2022-07-29T02:37:24;18.40;99.90
2999;DHT22;1509;51.964;7.628;2022-07-29T02:39:53;18.40;99.90
2999;DHT22;1509;51.964;7.628;2022-07-29T02:42:21;18.50;99.90
2999;DHT22;1509;51.964;7.628;2022-07-29T02:44:48;18.40;99.90
2999;DHT22;1509;51.964;7.628;2022-07-29T02:47:19;18.40;99.90
2999;DHT22;1509;51.964;7.628;2022-07-29T02:55:30;18.30;99.90
2999;DHT22;1509;51.964;7.628;2022-07-29T03:00:44;18.30;99.90
2999;DHT22;1509;51.964;7.628;2022-07-29T03:03:14;18.30;99.90
2999;DHT22;1509;51.964;7.628;2022-07-29T03:05:40;18.30;99.90
2999;DHT22;1509;51.964;7.628;2022-07-29T03:08:09;18.30;99.90
2999;DHT22;1509;51.964;7.628;2022-07-29T03:10:37;18.20;99.90
2999;DHT22;1509;51.964;7.628;2022-07-29T03:13:05;18.20;99.90
2999;DHT22;1509;51.964;7.628;2022-07-29T03:15:31;18.10;99.90
2999;DHT22;1509;51.964;7.628;2022-07-29T03:17:58;18.10;99.90
2999;DHT22;1509;51.964;7.628;2022-07-29T03:20:24;18.00;99.90
2999;DHT22;1509;51.964;7.628;2022-07-29T03:22:53;18.10;99.90
2999;DHT22;1509;51.964;7.628;2022-07-29T03:25:19;18.10;99.90
2999;DHT22;1509;51.964;7.628;2022-07-29T03:27:46;18.10;99.90
2999;DHT22;1509;51.964;7.628;2022-07-29T03:30:15;18.10;99.90
2999;DHT22;1509;51.964;7.628;2022-07-29T03:32:41;18.10;99.90
2999;DHT22;1509;51.964;7.628;2022-07-29T03:35:07;18.10;99.90
2999;DHT22;1509;51.964;7.628;2022-07-29T03:37:34;18.10;99.90
2999;DHT22;1509;51.964;7.628;2022-07-29T03:40:05;18.10;99.90
2999;DHT22;1509;51.964;7.628;2022-07-29T03:42:33;18.10;99.90
2999;DHT22;1509;51.964;7.628;2022-07-29T03:45:03;18.10;99.90
2999;DHT22;1509;51.964;7.628;2022-07-29T03:47:31;18.10;99.90
2999;DHT22;1509;51.964;7.628;2022-07-29T03:50:02;18.10;99.90
2999;DHT22;1509;51.964;7.628;2022-07-29T03:52:30;18.10;99.90
2999;DHT22;1509;51.964;7.628;2022-07-29T03:54:56;18.10;99.90
2999;DHT22;1509;51.964;7.628;2022-07-29T03:57:25;18.10;99.90
2999;DHT22;1509;51.964;7.628;2022-07-29T03:59:53;18.10;99.90
2999;DHT22;1509;51.964;7.628;2022-07-29T04:02:21;18.00;99.90
2999;DHT22;1509;51.964;7.628;2022-07-29T04:04:48;18.00;99.90
2999;DHT22;1509;51.964;7.628;2022-07-29T04:07:15;18.00;99.90
2999;DHT22;1509;51.964;7.628;2022-07-29T04:09:41;18.00;99.90
2999;DHT22;1509;51.964;7.628;2022-07-29T04:12:07;18.10;99.90
2999;DHT22;1509;51.964;7.628;2022-07-29T04:14:34;18.10;99.90
2999;DHT22;1509;51.964;7.628;2022-07-29T04:17:01;18.10;99.90
2999;DHT22;1509;51.964;7.628;2022-07-29T04:19:27;18.10;99.90
2999;DHT22;1509;51.964;7.628;2022-07-29T04:21:52;18.10;99.90
2999;DHT22;1509;51.964;7.628;2022-07-29T04:24:18;18.00;99.90
2999;DHT22;1509;51.964;7.628;2022-07-29T04:26:46;18.00;99.90
2999;DHT22;1509;51.964;7.628;2022-07-29T04:29:12;18.00;99.90
2999;DHT22;1509;51.964;7.628;2022-07-29T04:31:39;18.00;99.90
2999;DHT22;1509;51.964;7.628;2022-07-29T04:34:05;17.90;99.90
2999;DHT22;1509;51.964;7.628;2022-07-29T04:36:31;17.90;99.90
2999;DHT22;1509;51.964;7.628;2022-07-29T04:38:56;17.90;99.90
2999;DHT22;1509;51.964;7.628;2022-07-29T04:41:23;17.90;99.90
2999;DHT22;1509;51.964;7.628;2022-07-29T04:43:48;18.00;99.90
2999;DHT22;1509;51.964;7.628;2022-07-29T04:46:14;18.10;99.90
2999;DHT22;1509;51.964;7.628;2022-07-29T04:48:40;18.10;99.90
2999;DHT22;1509;51.964;7.628;2022-07-29T04:51:05;18.20;99.90
2999;DHT22;1509;51.964;7.628;2022-07-29T04:53:31;18.20;99.90
2999;DHT22;1509;51.964;7.628;2022-07-29T04:55:56;18.10;99.90
2999;DHT22;1509;51.964;7.628;2022-07-29T04:58:22;18.10;99.90
2999;DHT22;1509;51.964;7.628;2022-07-29T05:00:49;18.20;99.90
2999;DHT22;1509;51.964;7.628;2022-07-29T05:03:14;18.30;99.90
2999;DHT22;1509;51.964;7.628;2022-07-29T05:05:40;18.40;99.90
2999;DHT22;1509;51.964;7.628;2022-07-29T05:08:06;18.40;99.90
2999;DHT22;1509;51.964;7.628;2022-07-29T05:10:32;18.50;99.90
2999;DHT22;1509;51.964;7.628;2022-07-29T05:12:59;18.40;99.90
2999;DHT22;1509;51.964;7.628;2022-07-29T05:15:24;18.40;99.90
2999;DHT22;1509;51.964;7.628;2022-07-29T05:17:50;18.40;99.90
2999;DHT22;1509;51.964;7.628;2022-07-29T05:20:16;18.40;99.90
2999;DHT22;1509;51.964;7.628;2022-07-29T05:22:41;18.30;99.90
2999;DHT22;1509;51.964;7.628;2022-07-29T05:25:07;18.30;99.90
2999;DHT22;1509;51.964;7.628;2022-07-29T05:27:35;18.30;99.90
2999;DHT22;1509;51.964;7.628;2022-07-29T05:30:01;18.30;99.90
2999;DHT22;1509;51.964;7.628;2022-07-29T05:32:26;18.40;99.90
2999;DHT22;1509;51.964;7.628;2022-07-29T05:34:52;18.40;99.90
2999;DHT22;1509;51.964;7.628;2022-07-29T05:37:21;18.50;99.90
2999;DHT22;1509;51.964;7.628;2022-07-29T05:39:46;18.60;99.90
2999;DHT22;1509;51.964;7.628;2022-07-29T05:42:12;18.60;99.90
2999;DHT22;1509;51.964;7.628;2022-07-29T05:44:38;18.60;99.90
2999;DHT22;1509;51.964;7.628;2022-07-29T05:47:04;18.70;99.90
2999;DHT22;1509;51.964;7.628;2022-07-29T05:49:30;18.60;99.90
2999;DHT22;1509;51.964;7.628;2022-07-29T05:51:56;18.60;99.90
2999;DHT22;1509;51.964;7.628;2022-07-29T05:54:22;18.50;99.90
2999;DHT22;1509;51.964;7.628;2022-07-29T05:56:47;18.50;99.90
2999;DHT22;1509;51.964;7.628;2022-07-29T05:59:13;18.40;99.90
2999;DHT22;1509;51.964;7.628;2022-07-29T06:01:38;18.40;99.90
2999;DHT22;1509;51.964;7.628;2022-07-29T06:04:06;18.30;99.90
2999;DHT22;1509;51.964;7.628;2022-07-29T06:06:32;18.40;99.90
2999;DHT22;1509;51.964;7.628;2022-07-29T06:08:58;18.40;99.90
2999;DHT22;1509;51.964;7.628;2022-07-29T06:11:24;18.40;99.90
2999;DHT22;1509;51.964;7.628;2022-07-29T06:13:49;18.40;99.90
2999;DHT22;1509;51.964;7.628;2022-07-29T06:16:15;18.30;99.90
2999;DHT22;1509;51.964;7.628;2022-07-29T06:18:41;18.40;99.90
2999;DHT22;1509;51.964;7.628;2022-07-29T06:21:09;18.30;99.90
2999;DHT22;1509;51.964;7.628;2022-07-29T06:23:39;18.40;99.90
2999;DHT22;1509;51.964;7.628;2022-07-29T06:26:05;18.50;99.90
2999;DHT22;1509;51.964;7.628;2022-07-29T06:28:31;18.50;99.90
2999;DHT22;1509;51.964;7.628;2022-07-29T06:30:57;18.60;99.90
2999;DHT22;1509;51.964;7.628;2022-07-29T06:33:23;18.70;99.90
2999;DHT22;1509;51.964;7.628;2022-07-29T06:35:49;18.80;99.90
2999;DHT22;1509;51.964;7.628;2022-07-29T06:38:15;18.80;99.90
2999;DHT22;1509;51.964;7.628;2022-07-29T06:40:42;18.70;99.90
2999;DHT22;1509;51.964;7.628;2022-07-29T06:43:29;18.70;99.90
2999;DHT22;1509;51.964;7.628;2022-07-29T06:45:58;18.70;99.90
2999;DHT22;1509;51.964;7.628;2022-07-29T06:48:23;18.80;99.90
2999;DHT22;1509;51.964;7.628;2022-07-29T06:50:49;18.80;99.90
2999;DHT22;1509;51.964;7.628;2022-07-29T06:53:15;18.70;99.90
2999;DHT22;1509;51.964;7.628;2022-07-29T06:55:40;18.80;99.90
2999;DHT22;1509;51.964;7.628;2022-07-29T06:58:06;18.90;99.90
2999;DHT22;1509;51.964;7.628;2022-07-29T07:00:33;18.90;99.90
2999;DHT22;1509;51.964;7.628;2022-07-29T07:02:58;19.10;99.90
2999;DHT22;1509;51.964;7.628;2022-07-29T07:05:24;19.20;99.90
2999;DHT22;1509;51.964;7.628;2022-07-29T07:07:49;19.20;99.90
2999;DHT22;1509;51.964;7.628;2022-07-29T07:10:15;19.30;99.90
2999;DHT22;1509;51.964;7.628;2022-07-29T07:12:41;19.50;99.90
2999;DHT22;1509;51.964;7.628;2022-07-29T07:15:07;19.60;99.90
2999;DHT22;1509;51.964;7.628;2022-07-29T07:17:32;19.70;99.90
2999;DHT22;1509;51.964;7.628;2022-07-29T07:19:59;19.70;99.90
2999;DHT22;1509;51.964;7.628;2022-07-29T07:22:25;19.70;99.90
2999;DHT22;1509;51.964;7.628;2022-07-29T07:24:50;19.90;99.90
2999;DHT22;1509;51.964;7.628;2022-07-29T07:27:16;19.80;99.90
2999;DHT22;1509;51.964;7.628;2022-07-29T07:29:41;19.90;99.90
2999;DHT22;1509;51.964;7.628;2022-07-29T07:32:07;20.00;99.90
2999;DHT22;1509;51.964;7.628;2022-07-29T07:34:33;20.00;99.90
2999;DHT22;1509;51.964;7.628;2022-07-29T07:36:59;20.00;99.90
2999;DHT22;1509;51.964;7.628;2022-07-29T07:39:24;19.90;99.90
2999;DHT22;1509;51.964;7.628;2022-07-29T07:41:51;19.90;99.90
2999;DHT22;1509;51.964;7.628;2022-07-29T07:44:17;19.80;99.90
2999;DHT22;1509;51.964;7.628;2022-07-29T07:46:43;19.80;99.90
2999;DHT22;1509;51.964;7.628;2022-07-29T07:49:10;19.90;99.90
2999;DHT22;1509;51.964;7.628;2022-07-29T07:51:38;20.00;99.90
2999;DHT22;1509;51.964;7.628;2022-07-29T07:54:04;20.10;99.90
2999;DHT22;1509;51.964;7.628;2022-07-29T07:56:30;20.10;99.90
2999;DHT22;1509;51.964;7.628;2022-07-29T07:58:55;20.10;99.90
2999;DHT22;1509;51.964;7.628;2022-07-29T08:01:21;20.10;99.90
2999;DHT22;1509;51.964;7.628;2022-07-29T08:03:51;20.10;99.90
2999;DHT22;1509;51.964;7.628;2022-07-29T08:06:17;20.10;99.90
2999;DHT22;1509;51.964;7.628;2022-07-29T08:08:42;20.20;99.90
2999;DHT22;1509;51.964;7.628;2022-07-29T08:11:08;20.10;99.90
2999;DHT22;1509;51.964;7.628;2022-07-29T08:13:34;20.10;99.90
2999;DHT22;1509;51.964;7.628;2022-07-29T08:16:00;20.30;99.90
2999;DHT22;1509;51.964;7.628;2022-07-29T08:18:38;20.50;99.90
2999;DHT22;1509;51.964;7.628;2022-07-29T08:21:04;20.60;99.90
2999;DHT22;1509;51.964;7.628;2022-07-29T08:23:30;20.70;99.90
2999;DHT22;1509;51.964;7.628;2022-07-29T08:26:06;20.80;99.90
2999;DHT22;1509;51.964;7.628;2022-07-29T08:28:40;20.50;99.90
2999;DHT22;1509;51.964;7.628;2022-07-29T08:31:06;20.30;99.90
2999;DHT22;1509;51.964;7.628;2022-07-29T08:33:32;20.60;99.90
2999;DHT22;1509;51.964;7.628;2022-07-29T08:35:58;20.70;99.90
2999;DHT22;1509;51.964;7.628;2022-07-29T08:38:24;20.90;99.90
2999;DHT22;1509;51.964;7.628;2022-07-29T08:40:51;21.00;99.90
2999;DHT22;1509;51.964;7.628;2022-07-29T08:43:18;21.10;99.90
2999;DHT22;1509;51.964;7.628;2022-07-29T08:45:45;21.20;99.90
2999;DHT22;1509;51.964;7.628;2022-07-29T08:48:12;21.20;99.90
2999;DHT22;1509;51.964;7.628;2022-07-29T08:50:39;21.10;99.90
2999;DHT22;1509;51.964;7.628;2022-07-29T08:53:10;21.10;99.90
2999;DHT22;1509;51.964;7.628;2022-07-29T08:55:39;21.10;99.90
2999;DHT22;1509;51.964;7.628;2022-07-29T08:58:06;21.00;99.90
2999;DHT22;1509;51.964;7.628;2022-07-29T09:00:32;21.00;99.90
2999;DHT22;1509;51.964;7.628;2022-07-29T09:03:01;21.00;99.90
2999;DHT22;1509;51.964;7.628;2022-07-29T09:05:27;21.00;99.90
2999;DHT22;1509;51.964;7.628;2022-07-29T09:07:53;20.70;99.90
2999;DHT22;1509;51.964;7.628;2022-07-29T09:10:19;20.50;99.90
2999;DHT22;1509;51.964;7.628;2022-07-29T09:12:45;20.40;99.90
2999;DHT22;1509;51.964;7.628;2022-07-29T09:15:11;20.30;99.90
2999;DHT22;1509;51.964;7.628;2022-07-29T09:17:45;20.30;99.90
2999;DHT22;1509;51.964;7.628;2022-07-29T09:20:13;20.30;99.90
2999;DHT22;1509;51.964;7.628;2022-07-29T09:22:39;20.40;99.90
2999;DHT22;1509;51.964;7.628;2022-07-29T09:25:05;20.40;99.90
2999;DHT22;1509;51.964;7.628;2022-07-29T09:27:31;20.40;99.90
2999;DHT22;1509;51.964;7.628;2022-07-29T09:29:58;20.50;99.90
2999;DHT22;1509;51.964;7.628;2022-07-29T09:32:24;20.60;99.90
2999;DHT22;1509;51.964;7.628;2022-07-29T09:35:13;20.70;99.90
2999;DHT22;1509;51.964;7.628;2022-07-29T09:37:37;20.80;99.90
2999;DHT22;1509;51.964;7.628;2022-07-29T09:40:15;20.80;99.90
2999;DHT22;1509;51.964;7.628;2022-07-29T09:42:41;20.90;99.90
2999;DHT22;1509;51.964;7.628;2022-07-29T09:45:07;21.00;99.90
2999;DHT22;1509;51.964;7.628;2022-07-29T09:47:45;21.20;99.90
2999;DHT22;1509;51.964;7.628;2022-07-29T09:50:13;21.30;99.90
2999;DHT22;1509;51.964;7.628;2022-07-29T09:52:50;21.30;99.90
2999;DHT22;1509;51.964;7.628;2022-07-29T09:55:17;21.30;99.90
2999;DHT22;1509;51.964;7.628;2022-07-29T09:57:43;21.10;99.90
2999;DHT22;1509;51.964;7.628;2022-07-29T10:00:15;21.00;99.90
2999;DHT22;1509;51.964;7.628;2022-07-29T10:02:43;21.10;99.90
2999;DHT22;1509;51.964;7.628;2022-07-29T10:05:29;21.20;99.90
2999;DHT22;1509;51.964;7.628;2022-07-29T10:07:56;21.40;99.90
2999;DHT22;1509;51.964;7.628;2022-07-29T10:10:31;21.70;99.90
2999;DHT22;1509;51.964;7.628;2022-07-29T10:13:02;22.20;99.90
2999;DHT22;1509;51.964;7.628;2022-07-29T10:15:30;22.30;99.90
2999;DHT22;1509;51.964;7.628;2022-07-29T10:17:58;22.80;99.90
2999;DHT22;1509;51.964;7.628;2022-07-29T10:20:25;23.10;99.90
2999;DHT22;1509;51.964;7.628;2022-07-29T10:22:52;23.10;99.90
2999;DHT22;1509;51.964;7.628;2022-07-29T10:25:18;22.30;99.90
2999;DHT22;1509;51.964;7.628;2022-07-29T10:27:46;22.10;99.90
2999;DHT22;1509;51.964;7.628;2022-07-29T10:30:15;21.90;99.90
2999;DHT22;1509;51.964;7.628;2022-07-29T10:38:14;21.10;99.90
2999;DHT22;1509;51.964;7.628;2022-07-29T10:41:11;21.00;99.90
2999;DHT22;1509;51.964;7.628;2022-07-29T10:44:05;20.70;99.90
2999;DHT22;1509;51.964;7.628;2022-07-29T10:46:40;20.60;99.90
2999;DHT22;1509;51.964;7.628;2022-07-29T10:49:20;20.50;99.90
2999;DHT22;1509;51.964;7.628;2022-07-29T10:52:51;20.30;99.90
2999;DHT22;1509;51.964;7.628;2022-07-29T10:55:33;20.10;99.90
2999;DHT22;1509;51.964;7.628;2022-07-29T10:58:14;19.80;99.90
2999;DHT22;1509;51.964;7.628;2022-07-29T11:00:40;19.70;99.90
2999;DHT22;1509;51.964;7.628;2022-07-29T11:03:05;19.80;99.90
2999;DHT22;1509;51.964;7.628;2022-07-29T11:05:51;19.90;99.90
2999;DHT22;1509;51.964;7.628;2022-07-29T11:08:21;20.00;99.90
2999;DHT22;1509;51.964;7.628;2022-07-29T11:10:50;20.00;99.90
2999;DHT22;1509;51.964;7.628;2022-07-29T11:16:07;20.10;99.90
2999;DHT22;1509;51.964;7.628;2022-07-29T11:18:33;20.10;99.90
2999;DHT22;1509;51.964;7.628;2022-07-29T11:20:59;20.10;99.90
2999;DHT22;1509;51.964;7.628;2022-07-29T11:23:30;20.10;99.90
2999;DHT22;1509;51.964;7.628;2022-07-29T11:31:51;20.10;99.90
2999;DHT22;1509;51.964;7.628;2022-07-29T11:34:29;19.90;99.90
2999;DHT22;1509;51.964;7.628;2022-07-29T11:39:42;20.10;99.90
2999;DHT22;1509;51.964;7.628;2022-07-29T11:47:39;20.40;99.90
2999;DHT22;1509;51.964;7.628;2022-07-29T11:50:10;20.30;99.90
2999;DHT22;1509;51.964;7.628;2022-07-29T11:52:41;20.20;99.90
2999;DHT22;1509;51.964;7.628;2022-07-29T11:55:18;20.20;99.90
2999;DHT22;1509;51.964;7.628;2022-07-29T11:57:55;20.00;99.90
2999;DHT22;1509;51.964;7.628;2022-07-29T12:00:39;19.90;99.90
2999;DHT22;1509;51.964;7.628;2022-07-29T12:03:09;19.70;99.90
2999;DHT22;1509;51.964;7.628;2022-07-29T12:05:44;19.50;99.90
2999;DHT22;1509;51.964;7.628;2022-07-29T12:08:14;19.30;99.90
2999;DHT22;1509;51.964;7.628;2022-07-29T12:10:41;19.30;99.90
2999;DHT22;1509;51.964;7.628;2022-07-29T12:13:08;19.20;99.90
2999;DHT22;1509;51.964;7.628;2022-07-29T12:15:34;19.20;99.90
2999;DHT22;1509;51.964;7.628;2022-07-29T12:18:13;19.20;99.90
2999;DHT22;1509;51.964;7.628;2022-07-29T12:20:39;19.20;99.90
2999;DHT22;1509;51.964;7.628;2022-07-29T12:23:06;19.20;99.90
2999;DHT22;1509;51.964;7.628;2022-07-29T12:25:34;19.20;99.90
2999;DHT22;1509;51.964;7.628;2022-07-29T12:28:12;19.30;99.90
2999;DHT22;1509;51.964;7.628;2022-07-29T12:30:49;19.30;99.90
2999;DHT22;1509;51.964;7.628;2022-07-29T12:35:46;19.40;99.90
2999;DHT22;1509;51.964;7.628;2022-07-29T12:38:12;19.40;99.90
2999;DHT22;1509;51.964;7.628;2022-07-29T12:40:38;19.50;99.90
2999;DHT22;1509;51.964;7.628;2022-07-29T12:43:12;19.60;99.90
2999;DHT22;1509;51.964;7.628;2022-07-29T12:45:40;19.70;99.90
2999;DHT22;1509;51.964;7.628;2022-07-29T12:48:06;19.70;99.90
2999;DHT22;1509;51.964;7.628;2022-07-29T12:50:51;19.80;99.90
2999;DHT22;1509;51.964;7.628;2022-07-29T12:53:17;20.00;99.90
2999;DHT22;1509;51.964;7.628;2022-07-29T12:55:44;20.30;99.90
2999;DHT22;1509;51.964;7.628;2022-07-29T12:58:27;20.40;99.90
2999;DHT22;1509;51.964;7.628;2022-07-29T13:03:25;20.90;99.90
2999;DHT22;1509;51.964;7.628;2022-07-29T13:05:51;21.00;99.90
2999;DHT22;1509;51.964;7.628;2022-07-29T13:08:17;21.00;99.90
2999;DHT22;1509;51.964;7.628;2022-07-29T13:10:46;21.00;99.90
2999;DHT22;1509;51.964;7.628;2022-07-29T13:13:14;21.10;99.90
2999;DHT22;1509;51.964;7.628;2022-07-29T13:15:42;21.20;99.90
2999;DHT22;1509;51.964;7.628;2022-07-29T13:20:53;21.40;99.90
2999;DHT22;1509;51.964;7.628;2022-07-29T13:23:19;21.50;99.90
2999;DHT22;1509;51.964;7.628;2022-07-29T13:25:45;21.60;99.90
2999;DHT22;1509;51.964;7.628;2022-07-29T13:28:10;21.80;99.90
2999;DHT22;1509;51.964;7.628;2022-07-29T13:30:37;22.00;99.90
2999;DHT22;1509;51.964;7.628;2022-07-29T13:33:03;22.30;99.90
2999;DHT22;1509;51.964;7.628;2022-07-29T13:35:31;22.60;99.90
2999;DHT22;1509;51.964;7.628;2022-07-29T13:37:57;22.80;99.90
2999;DHT22;1509;51.964;7.628;2022-07-29T13:40:22;23.00;99.90
2999;DHT22;1509;51.964;7.628;2022-07-29T13:42:48;23.20;99.90
2999;DHT22;1509;51.964;7.628;2022-07-29T13:45:14;23.50;99.90
2999;DHT22;1509;51.964;7.628;2022-07-29T13:47:40;24.10;99.90
2999;DHT22;1509;51.964;7.628;2022-07-29T13:50:07;24.70;99.90
2999;DHT22;1509;51.964;7.628;2022-07-29T13:52:33;25.20;99.90
2999;DHT22;1509;51.964;7.628;2022-07-29T13:54:59;25.70;99.90
2999;DHT22;1509;51.964;7.628;2022-07-29T13:57:24;26.20;99.90
2999;DHT22;1509;51.964;7.628;2022-07-29T13:59:50;26.50;99.90
2999;DHT22;1509;51.964;7.628;2022-07-29T14:02:16;26.60;99.90
2999;DHT22;1509;51.964;7.628;2022-07-29T14:04:43;26.50;99.90
2999;DHT22;1509;51.964;7.628;2022-07-29T14:07:08;26.50;99.90
2999;DHT22;1509;51.964;7.628;2022-07-29T14:09:35;26.50;99.90
2999;DHT22;1509;51.964;7.628;2022-07-29T14:12:01;26.60;99.90
2999;DHT22;1509;51.964;7.628;2022-07-29T14:14:28;26.50;99.90
2999;DHT22;1509;51.964;7.628;2022-07-29T14:16:54;26.60;99.90
2999;DHT22;1509;51.964;7.628;2022-07-29T14:19:20;26.50;99.90
2999;DHT22;1509;51.964;7.628;2022-07-29T14:21:45;26.40;99.90
2999;DHT22;1509;51.964;7.628;2022-07-29T14:24:11;26.50;99.90
2999;DHT22;1509;51.964;7.628;2022-07-29T14:26:37;26.50;99.90
2999;DHT22;1509;51.964;7.628;2022-07-29T14:29:02;26.70;99.90
2999;DHT22;1509;51.964;7.628;2022-07-29T14:31:28;26.60;99.90
2999;DHT22;1509;51.964;7.628;2022-07-29T14:33:53;26.50;99.90
2999;DHT22;1509;51.964;7.628;2022-07-29T14:36:19;26.50;99.90
2999;DHT22;1509;51.964;7.628;2022-07-29T14:38:45;26.50;99.90
2999;DHT22;1509;51.964;7.628;2022-07-29T14:41:10;26.50;99.90
2999;DHT22;1509;51.964;7.628;2022-07-29T14:43:36;26.50;99.90
2999;DHT22;1509;51.964;7.628;2022-07-29T14:46:02;26.50;99.90
2999;DHT22;1509;51.964;7.628;2022-07-29T14:48:27;26.40;99.90
2999;DHT22;1509;51.964;7.628;2022-07-29T14:50:53;26.30;99.90
2999;DHT22;1509;51.964;7.628;2022-07-29T14:53:21;26.40;99.90
2999;DHT22;1509;51.964;7.628;2022-07-29T14:55:47;26.40;99.90
2999;DHT22;1509;51.964;7.628;2022-07-29T14:58:12;26.20;99.90
2999;DHT22;1509;51.964;7.628;2022-07-29T15:00:39;26.10;99.90
2999;DHT22;1509;51.964;7.628;2022-07-29T15:03:05;26.10;99.90
2999;DHT22;1509;51.964;7.628;2022-07-29T15:05:31;25.90;99.90
2999;DHT22;1509;51.964;7.628;2022-07-29T15:07:57;25.70;99.90
2999;DHT22;1509;51.964;7.628;2022-07-29T15:10:24;25.60;99.90
2999;DHT22;1509;51.964;7.628;2022-07-29T15:12:54;25.50;99.90
2999;DHT22;1509;51.964;7.628;2022-07-29T15:15:20;25.40;99.90
2999;DHT22;1509;51.964;7.628;2022-07-29T15:17:46;25.60;99.90
2999;DHT22;1509;51.964;7.628;2022-07-29T15:20:12;25.60;99.90
2999;DHT22;1509;51.964;7.628;2022-07-29T15:22:37;25.50;99.90
2999;DHT22;1509;51.964;7.628;2022-07-29T15:25:04;25.50;99.90
2999;DHT22;1509;51.964;7.628;2022-07-29T15:27:30;25.50;99.90
2999;DHT22;1509;51.964;7.628;2022-07-29T15:29:56;25.50;99.90
2999;DHT22;1509;51.964;7.628;2022-07-29T15:32:22;25.20;99.90
2999;DHT22;1509;51.964;7.628;2022-07-29T15:34:47;25.10;99.90
2999;DHT22;1509;51.964;7.628;2022-07-29T15:37:13;25.10;99.90
2999;DHT22;1509;51.964;7.628;2022-07-29T15:39:39;25.20;99.90
2999;DHT22;1509;51.964;7.628;2022-07-29T15:42:04;25.40;99.90
2999;DHT22;1509;51.964;7.628;2022-07-29T15:44:30;25.60;99.90
2999;DHT22;1509;51.964;7.628;2022-07-29T15:46:56;25.80;99.90
2999;DHT22;1509;51.964;7.628;2022-07-29T15:49:38;25.80;99.90
2999;DHT22;1509;51.964;7.628;2022-07-29T15:52:09;25.80;99.90
2999;DHT22;1509;51.964;7.628;2022-07-29T15:54:37;25.90;99.90
2999;DHT22;1509;51.964;7.628;2022-07-29T15:57:04;25.80;99.90
2999;DHT22;1509;51.964;7.628;2022-07-29T15:59:31;25.50;99.90
2999;DHT22;1509;51.964;7.628;2022-07-29T16:01:56;25.40;99.90
2999;DHT22;1509;51.964;7.628;2022-07-29T16:04:22;25.40;99.90
2999;DHT22;1509;51.964;7.628;2022-07-29T16:06:48;25.50;99.90
2999;DHT22;1509;51.964;7.628;2022-07-29T16:09:15;25.50;99.90
2999;DHT22;1509;51.964;7.628;2022-07-29T16:11:41;25.50;99.90
2999;DHT22;1509;51.964;7.628;2022-07-29T16:14:07;25.50;99.90
2999;DHT22;1509;51.964;7.628;2022-07-29T16:16:34;25.50;99.90
2999;DHT22;1509;51.964;7.628;2022-07-29T16:18:59;25.50;99.90
2999;DHT22;1509;51.964;7.628;2022-07-29T16:21:25;25.40;99.90
2999;DHT22;1509;51.964;7.628;2022-07-29T16:23:50;25.30;99.90
2999;DHT22;1509;51.964;7.628;2022-07-29T16:26:17;25.20;99.90
2999;DHT22;1509;51.964;7.628;2022-07-29T16:28:42;25.00;99.90
2999;DHT22;1509;51.964;7.628;2022-07-29T16:31:08;24.90;99.90
2999;DHT22;1509;51.964;7.628;2022-07-29T16:33:34;24.90;99.90
2999;DHT22;1509;51.964;7.628;2022-07-29T16:36:00;24.80;99.90
2999;DHT22;1509;51.964;7.628;2022-07-29T16:38:25;24.80;99.90
2999;DHT22;1509;51.964;7.628;2022-07-29T16:40:51;24.60;99.90
2999;DHT22;1509;51.964;7.628;2022-07-29T16:43:17;24.60;99.90
2999;DHT22;1509;51.964;7.628;2022-07-29T16:45:43;24.60;99.90
2999;DHT22;1509;51.964;7.628;2022-07-29T16:48:09;24.60;99.90
2999;DHT22;1509;51.964;7.628;2022-07-29T16:50:34;24.60;99.90
2999;DHT22;1509;51.964;7.628;2022-07-29T16:53:00;24.60;99.90
2999;DHT22;1509;51.964;7.628;2022-07-29T16:55:25;24.60;99.90
2999;DHT22;1509;51.964;7.628;2022-07-29T16:57:51;24.70;99.90
2999;DHT22;1509;51.964;7.628;2022-07-29T17:00:18;24.80;99.90